createdAt,value
2022-10-20T00:00:48.729Z,17.20
2022-10-20T00:03:51.665Z,17.20
2022-10-20T00:06:53.656Z,17.20
2022-10-20T00:09:55.727Z,17.20
2022-10-20T00:12:57.757Z,17.30
2022-10-20T00:16:00.456Z,17.30
2022-10-20T00:19:02.542Z,17.20
2022-10-20T00:22:04.864Z,17.30
2022-10-20T00:25:07.304Z,17.40
2022-10-20T00:28:09.595Z,17.40
2022-10-20T00:31:13.167Z,17.40
2022-10-20T00:34:15.218Z,17.40
2022-10-20T00:37:17.434Z,17.50
2022-10-20T00:40:20.715Z,17.50
2022-10-20T00:43:23.479Z,17.50
2022-10-20T00:46:45.862Z,17.50
2022-10-20T00:49:50.171Z,17.60
2022-10-20T00:52:53.750Z,17.60
2022-10-20T00:55:58.489Z,17.60
2022-10-20T00:59:02.758Z,17.70
2022-10-20T01:02:07.108Z,17.70
2022-10-20T01:05:09.511Z,17.80
2022-10-20T01:08:11.550Z,17.80
2022-10-20T01:11:50.062Z,17.80
2022-10-20T01:15:03.111Z,17.80
2022-10-20T01:18:13.423Z,17.90
2022-10-20T01:21:51.900Z,17.90
2022-10-20T01:25:25.885Z,18.00
2022-10-20T01:28:30.975Z,18.00
2022-10-20T01:32:16.977Z,18.00
2022-10-20T01:35:42.784Z,18.10
2022-10-20T01:38:51.063Z,18.10
2022-10-20T01:41:58.995Z,18.20
2022-10-20T01:45:05.735Z,18.20
2022-10-20T01:48:10.338Z,18.20
2022-10-20T01:51:13.361Z,18.30
2022-10-20T01:54:24.190Z,18.40
2022-10-20T01:57:26.507Z,18.40
2022-10-20T02:00:28.812Z,18.40
2022-10-20T02:03:53.334Z,18.50
2022-10-20T02:07:06.777Z,18.50
2022-10-20T02:10:17.186Z,18.60
2022-10-20T02:13:21.269Z,18.60
2022-10-20T02:16:34.610Z,18.60
2022-10-20T02:19:41.796Z,18.70
2022-10-20T02:22:44.334Z,18.70
2022-10-20T02:25:53.147Z,18.70
2022-10-20T02:29:03.678Z,18.70
2022-10-20T02:32:07.977Z,18.70
2022-10-20T02:35:15.462Z,18.80
2022-10-20T02:38:17.982Z,18.70
2022-10-20T02:41:20.048Z,18.70
2022-10-20T02:44:23.023Z,18.60
2022-10-20T02:47:25.123Z,18.60
2022-10-20T02:50:27.251Z,18.60
2022-10-20T02:53:29.288Z,18.50
2022-10-20T02:56:31.405Z,18.60
2022-10-20T02:59:33.732Z,18.50
2022-10-20T03:02:35.795Z,18.60
2022-10-20T03:05:44.497Z,18.60
2022-10-20T03:08:46.574Z,18.60
2022-10-20T03:11:48.688Z,18.50
2022-10-20T03:14:51.080Z,18.50
2022-10-20T03:17:53.089Z,18.60
2022-10-20T03:20:55.602Z,18.60
2022-10-20T03:23:57.632Z,18.60
2022-10-20T03:26:59.642Z,18.60
2022-10-20T03:30:01.614Z,18.60
2022-10-20T03:33:04.156Z,18.60
2022-10-20T03:36:07.912Z,18.60
2022-10-20T03:39:09.979Z,18.70
2022-10-20T03:42:12.040Z,18.60
2022-10-20T03:45:17.781Z,18.60
2022-10-20T03:48:20.944Z,18.60
2022-10-20T03:51:28.084Z,18.70
2022-10-20T03:54:30.196Z,18.70
2022-10-20T03:57:32.306Z,18.70
2022-10-20T04:00:34.384Z,18.70
2022-10-20T04:03:36.487Z,18.70
2022-10-20T04:06:38.821Z,18.70
2022-10-20T04:09:41.059Z,18.80
2022-10-20T04:12:43.485Z,18.80
2022-10-20T04:15:51.852Z,18.80
2022-10-20T04:18:57.903Z,18.80
2022-10-20T04:21:59.979Z,18.80
2022-10-20T04:25:08.501Z,18.90
2022-10-20T04:28:10.911Z,18.90
2022-10-20T04:31:13.184Z,18.80
2022-10-20T04:34:15.993Z,18.90
2022-10-20T04:37:18.036Z,18.80
2022-10-20T04:40:20.100Z,18.80
2022-10-20T04:43:23.283Z,18.80
2022-10-20T04:46:26.860Z,18.80
2022-10-20T04:49:28.974Z,18.80
2022-10-20T04:52:31.013Z,18.80
2022-10-20T04:55:33.033Z,18.80
2022-10-20T04:58:35.637Z,18.80
2022-10-20T05:01:37.758Z,18.80
2022-10-20T05:04:40.583Z,18.80
2022-10-20T05:07:42.786Z,18.80
2022-10-20T05:10:44.834Z,18.80
2022-10-20T05:13:47.268Z,18.80
2022-10-20T05:16:49.300Z,18.80
2022-10-20T05:19:51.367Z,18.90
2022-10-20T05:22:53.833Z,18.80
2022-10-20T05:25:55.987Z,18.80
2022-10-20T05:28:57.997Z,18.80
2022-10-20T05:32:00.057Z,18.70
2022-10-20T05:35:02.106Z,18.70
2022-10-20T05:38:04.198Z,18.70
2022-10-20T05:41:09.612Z,18.70
2022-10-20T05:44:13.592Z,18.80
2022-10-20T05:47:15.639Z,18.80
2022-10-20T05:50:17.772Z,18.70
2022-10-20T05:53:19.920Z,18.70
2022-10-20T05:56:22.978Z,18.70
2022-10-20T05:59:25.111Z,18.80
2022-10-20T06:02:27.218Z,18.80
2022-10-20T06:05:31.069Z,18.80
2022-10-20T06:08:34.138Z,18.80
2022-10-20T06:11:39.279Z,18.80
2022-10-20T06:14:41.868Z,18.90
2022-10-20T06:17:46.448Z,18.90
2022-10-20T06:20:48.356Z,18.90
2022-10-20T06:23:53.881Z,19.00
2022-10-20T06:26:55.939Z,19.00
2022-10-20T06:29:57.961Z,19.00
2022-10-20T06:33:02.375Z,19.00
2022-10-20T06:36:04.370Z,19.00
2022-10-20T06:39:08.906Z,19.00
2022-10-20T06:42:12.451Z,19.10
2022-10-20T06:45:16.986Z,19.10
2022-10-20T06:48:20.050Z,19.00
2022-10-20T06:51:23.408Z,19.00
2022-10-20T06:54:25.463Z,18.90
2022-10-20T06:57:27.535Z,18.80
2022-10-20T07:03:35.068Z,18.70
2022-10-20T07:06:39.557Z,18.60
2022-10-20T07:09:41.547Z,18.50
2022-10-20T07:12:43.548Z,18.50
2022-10-20T07:15:46.753Z,18.50
2022-10-20T07:18:49.526Z,18.40
2022-10-20T07:21:51.625Z,18.40
2022-10-20T07:24:54.167Z,18.40
2022-10-20T07:27:56.215Z,18.40
2022-10-20T07:31:13.152Z,18.40
2022-10-20T07:34:25.616Z,18.40
2022-10-20T07:37:29.037Z,18.40
2022-10-20T07:40:31.498Z,18.40
2022-10-20T07:43:33.587Z,18.40
2022-10-20T07:46:36.602Z,18.50
2022-10-20T07:49:45.906Z,18.50
2022-10-20T07:52:52.517Z,18.60
2022-10-20T07:55:54.532Z,18.70
2022-10-20T07:58:56.871Z,18.70
2022-10-20T08:02:00.045Z,18.80
2022-10-20T08:05:05.135Z,18.80
2022-10-20T08:08:07.248Z,18.80
2022-10-20T08:11:10.510Z,18.90
2022-10-20T08:14:12.925Z,18.90
2022-10-20T08:17:15.004Z,18.90
2022-10-20T08:20:21.408Z,19.00
2022-10-20T08:23:25.733Z,19.00
2022-10-20T08:26:27.788Z,19.10
2022-10-20T08:29:30.272Z,19.10
2022-10-20T08:32:32.510Z,19.10
2022-10-20T08:35:35.175Z,19.10
2022-10-20T08:38:38.528Z,19.10
2022-10-20T08:45:07.319Z,19.10
2022-10-20T08:48:16.958Z,19.20
2022-10-20T08:51:30.438Z,19.20
2022-10-20T08:54:35.189Z,19.10
2022-10-20T08:57:37.329Z,19.10
2022-10-20T09:00:40.419Z,19.20
2022-10-20T09:03:42.879Z,19.20
2022-10-20T09:06:49.142Z,19.20
2022-10-20T09:09:51.567Z,19.20
2022-10-20T09:12:54.213Z,19.10
2022-10-20T09:16:07.156Z,19.00
2022-10-20T09:19:20.851Z,19.00
2022-10-20T09:22:30.847Z,18.90
2022-10-20T09:25:36.076Z,19.00
2022-10-20T09:29:02.008Z,19.00
2022-10-20T09:32:15.404Z,19.10
2022-10-20T09:35:35.949Z,19.20
2022-10-20T09:38:47.594Z,19.30
2022-10-20T09:41:58.898Z,19.30
2022-10-20T09:45:06.082Z,19.40
2022-10-20T09:48:22.861Z,19.50
2022-10-20T09:51:28.305Z,19.50
2022-10-20T09:54:30.890Z,19.60
2022-10-20T09:57:33.829Z,19.70
2022-10-20T10:00:39.146Z,19.90
2022-10-20T10:03:46.886Z,20.10
2022-10-20T10:06:48.943Z,20.30
2022-10-20T10:09:58.882Z,20.50
2022-10-20T10:13:04.010Z,20.60
2022-10-20T10:16:11.938Z,20.60
2022-10-20T10:19:19.529Z,20.70
2022-10-20T10:22:21.780Z,20.70
2022-10-20T10:25:29.705Z,20.70
2022-10-20T10:28:39.991Z,20.70
2022-10-20T10:31:51.791Z,20.60
2022-10-20T10:35:01.403Z,20.70
2022-10-20T10:38:03.585Z,20.90
2022-10-20T10:41:26.722Z,21.10
2022-10-20T10:44:56.645Z,21.20
2022-10-20T10:48:07.291Z,21.30
2022-10-20T10:51:27.014Z,21.40
2022-10-20T10:54:48.739Z,21.50
2022-10-20T10:58:21.553Z,21.60
2022-10-20T11:01:28.865Z,21.80
2022-10-20T11:05:08.565Z,21.80
2022-10-20T11:08:19.277Z,22.00
2022-10-20T11:11:24.411Z,22.20
2022-10-20T11:14:31.201Z,22.30
2022-10-20T11:17:36.632Z,22.50
2022-10-20T11:20:49.129Z,23.10
2022-10-20T11:24:07.991Z,23.30
2022-10-20T11:27:13.777Z,23.80
2022-10-20T11:30:23.007Z,24.00
2022-10-20T11:33:31.615Z,24.00
2022-10-20T11:36:45.363Z,23.90
2022-10-20T11:40:28.511Z,23.80
2022-10-20T11:43:47.799Z,23.60
2022-10-20T11:46:52.149Z,23.70
2022-10-20T11:49:54.193Z,23.60
2022-10-20T11:53:32.849Z,23.50
2022-10-20T11:57:01.165Z,23.50
2022-10-20T12:00:24.187Z,23.70
2022-10-20T12:03:56.657Z,23.80
2022-10-20T12:06:59.610Z,24.00
2022-10-20T12:10:38.369Z,24.20
2022-10-20T12:13:55.782Z,24.40
2022-10-20T12:17:36.677Z,24.50
2022-10-20T12:20:38.693Z,24.60
2022-10-20T12:23:43.856Z,24.60
2022-10-20T12:27:06.995Z,24.80
2022-10-20T12:30:39.641Z,25.00
2022-10-20T12:33:53.438Z,24.90
2022-10-20T12:37:16.219Z,24.90
2022-10-20T12:40:40.519Z,24.90
2022-10-20T12:43:51.100Z,24.80
2022-10-20T12:47:06.068Z,24.70
2022-10-20T12:50:41.294Z,24.60
2022-10-20T12:53:43.722Z,24.40
2022-10-20T12:56:46.174Z,24.40
2022-10-20T12:59:48.258Z,24.20
2022-10-20T13:02:57.911Z,24.20
2022-10-20T13:06:00.115Z,24.20
2022-10-20T13:09:06.110Z,24.30
2022-10-20T13:12:29.071Z,24.40
2022-10-20T13:15:42.779Z,24.40
2022-10-20T13:18:50.133Z,24.50
2022-10-20T13:21:52.512Z,24.40
2022-10-20T13:24:58.950Z,24.40
2022-10-20T13:28:16.112Z,24.50
2022-10-20T13:31:34.477Z,24.50
2022-10-20T13:34:49.274Z,24.30
2022-10-20T13:37:54.278Z,24.10
2022-10-20T13:41:16.705Z,24.00
2022-10-20T13:44:31.396Z,23.90
2022-10-20T13:47:50.394Z,23.90
2022-10-20T13:51:18.374Z,24.00
2022-10-20T13:54:32.658Z,23.90
2022-10-20T13:57:56.355Z,24.00
2022-10-20T14:01:06.369Z,24.10
2022-10-20T14:04:30.372Z,24.20
2022-10-20T14:07:40.969Z,24.10
2022-10-20T14:11:08.531Z,24.00
2022-10-20T14:14:15.972Z,24.00
2022-10-20T14:17:25.318Z,23.90
2022-10-20T14:20:29.363Z,23.90
2022-10-20T14:23:39.899Z,23.90
2022-10-20T14:26:46.837Z,23.80
2022-10-20T14:29:50.190Z,23.70
2022-10-20T14:32:52.587Z,23.60
2022-10-20T14:35:57.384Z,23.50
2022-10-20T14:39:01.226Z,23.50
2022-10-20T14:42:35.501Z,23.40
2022-10-20T14:45:37.508Z,23.40
2022-10-20T14:48:46.266Z,23.20
2022-10-20T14:52:21.862Z,23.10
2022-10-20T14:55:32.623Z,23.00
2022-10-20T14:58:54.613Z,22.90
2022-10-20T15:02:09.775Z,22.90
2022-10-20T15:05:31.467Z,22.90
2022-10-20T15:08:33.719Z,22.80
2022-10-20T15:11:39.323Z,22.80
2022-10-20T15:14:44.080Z,22.80
2022-10-20T15:18:10.555Z,22.80
2022-10-20T15:21:13.758Z,22.70
2022-10-20T15:24:16.258Z,22.60
2022-10-20T15:27:18.587Z,22.50
2022-10-20T15:30:22.694Z,22.50
2022-10-20T15:33:25.265Z,22.40
2022-10-20T15:36:33.062Z,22.40
2022-10-20T15:39:35.756Z,22.30
2022-10-20T15:42:38.304Z,22.30
2022-10-20T15:45:45.752Z,22.20
2022-10-20T15:48:50.342Z,22.20
2022-10-20T15:51:52.475Z,22.10
2022-10-20T15:54:54.520Z,21.90
2022-10-20T15:57:57.180Z,21.90
2022-10-20T16:01:01.893Z,21.80
2022-10-20T16:04:19.261Z,21.80
2022-10-20T16:07:21.262Z,21.60
2022-10-20T16:10:25.660Z,21.30
2022-10-20T16:13:27.666Z,21.10
2022-10-20T16:16:29.774Z,20.90
2022-10-20T16:19:31.823Z,20.70
2022-10-20T16:22:35.255Z,20.70
2022-10-20T16:25:40.762Z,20.50
2022-10-20T16:28:43.120Z,20.40
2022-10-20T16:31:45.441Z,20.40
2022-10-20T16:34:49.041Z,20.30
2022-10-20T16:37:51.088Z,20.30
2022-10-20T16:41:01.042Z,20.30
2022-10-20T16:44:06.078Z,20.30
2022-10-20T16:47:08.493Z,20.30
2022-10-20T16:50:10.541Z,20.30
2022-10-20T16:53:12.809Z,20.30
2022-10-20T16:56:18.182Z,20.20
2022-10-20T16:59:22.900Z,20.10
2022-10-20T17:02:24.952Z,20.10
2022-10-20T17:05:27.043Z,20.10
2022-10-20T17:08:30.570Z,20.00
2022-10-20T17:11:33.602Z,20.00
2022-10-20T17:14:35.783Z,20.00
2022-10-20T17:17:38.430Z,20.00
2022-10-20T17:20:40.683Z,20.00
2022-10-20T17:23:44.785Z,19.90
2022-10-20T17:26:46.760Z,19.90
2022-10-20T17:29:48.836Z,19.80
2022-10-20T17:32:51.099Z,19.80
2022-10-20T17:35:54.717Z,19.80
2022-10-20T17:39:06.279Z,19.80
2022-10-20T17:42:08.316Z,19.70
2022-10-20T17:45:10.713Z,19.70
2022-10-20T17:48:14.296Z,19.70
2022-10-20T17:51:20.412Z,19.60
2022-10-20T17:54:23.010Z,19.60
2022-10-20T17:57:25.126Z,19.60
2022-10-20T18:00:51.020Z,19.60
2022-10-20T18:03:53.957Z,19.60
2022-10-20T18:06:55.987Z,19.60
2022-10-20T18:09:58.068Z,19.60
2022-10-20T18:13:00.083Z,19.50
2022-10-20T18:16:11.814Z,19.60
2022-10-20T18:19:16.846Z,19.60
2022-10-20T18:22:19.055Z,19.50
2022-10-20T18:25:21.090Z,19.60
2022-10-20T18:28:24.334Z,19.60
2022-10-20T18:31:30.599Z,19.60
2022-10-20T18:34:34.287Z,19.50
2022-10-20T18:37:36.576Z,19.50
2022-10-20T18:40:39.066Z,19.50
2022-10-20T18:43:41.499Z,19.50
2022-10-20T18:46:44.131Z,19.50
2022-10-20T18:49:46.235Z,19.50
2022-10-20T18:52:48.248Z,19.50
2022-10-20T18:56:18.591Z,19.50
2022-10-20T18:59:21.238Z,19.60
2022-10-20T19:02:24.302Z,19.50
2022-10-20T19:05:26.271Z,19.50
2022-10-20T19:08:30.193Z,19.50
2022-10-20T19:11:34.389Z,19.60
2022-10-20T19:14:36.385Z,19.60
2022-10-20T19:17:38.508Z,19.60
2022-10-20T19:20:41.530Z,19.60
2022-10-20T19:23:50.099Z,19.60
2022-10-20T19:27:21.317Z,19.60
2022-10-20T19:30:17.623Z,19.70
2022-10-20T19:33:19.758Z,19.70
2022-10-20T19:36:24.475Z,19.70
2022-10-20T19:39:33.143Z,19.70
2022-10-20T19:42:39.007Z,19.80
2022-10-20T19:45:42.863Z,19.70
2022-10-20T19:48:47.932Z,19.80
2022-10-20T19:51:50.537Z,19.70
2022-10-20T19:54:52.658Z,19.70
2022-10-20T19:57:54.668Z,19.70
2022-10-20T20:00:58.648Z,19.70
2022-10-20T20:04:00.788Z,19.70
2022-10-20T20:07:02.908Z,19.70
2022-10-20T20:10:05.467Z,19.70
2022-10-20T20:13:07.527Z,19.70
2022-10-20T20:16:09.705Z,19.70
2022-10-20T20:19:12.862Z,19.70
2022-10-20T20:22:15.095Z,19.70
2022-10-20T20:25:17.208Z,19.70
2022-10-20T20:28:19.371Z,19.60
2022-10-20T20:31:22.205Z,19.70
2022-10-20T20:34:24.445Z,19.70
2022-10-20T20:37:26.428Z,19.70
2022-10-20T20:40:28.606Z,19.70
2022-10-20T20:43:30.915Z,19.70
2022-10-20T20:46:34.386Z,19.70
2022-10-20T20:49:37.590Z,19.70
2022-10-20T20:52:41.691Z,19.60
2022-10-20T20:56:12.794Z,19.60
2022-10-20T20:59:15.351Z,19.60
2022-10-20T21:02:18.866Z,19.60
2022-10-20T21:05:21.416Z,19.60
2022-10-20T21:08:23.692Z,19.60
2022-10-20T21:11:27.507Z,19.60
2022-10-20T21:14:30.263Z,19.60
2022-10-20T21:17:32.337Z,19.60
2022-10-20T21:20:39.693Z,19.70
2022-10-20T21:23:44.509Z,19.70
2022-10-20T21:26:47.023Z,19.70
2022-10-20T21:29:49.082Z,19.70
2022-10-20T21:32:53.334Z,19.70
2022-10-20T21:36:07.263Z,19.70
2022-10-20T21:39:15.183Z,19.70
2022-10-20T21:42:17.523Z,19.70
2022-10-20T21:45:19.694Z,19.70
2022-10-20T21:48:21.799Z,19.70
2022-10-20T21:51:29.966Z,19.70
2022-10-20T21:54:32.023Z,19.70
2022-10-20T21:57:34.136Z,19.70
2022-10-20T22:00:36.425Z,19.70
2022-10-20T22:03:39.626Z,19.70
2022-10-20T22:06:43.066Z,19.70
2022-10-20T22:09:45.268Z,19.70
2022-10-20T22:12:48.123Z,19.70
2022-10-20T22:15:50.195Z,19.60
2022-10-20T22:19:06.915Z,19.60
2022-10-20T22:22:09.505Z,19.60
2022-10-20T22:25:11.576Z,19.60
2022-10-20T22:28:13.913Z,19.50
2022-10-20T22:31:18.072Z,19.50
2022-10-20T22:34:21.261Z,19.40
2022-10-20T22:37:24.719Z,19.40
2022-10-20T22:40:26.836Z,19.30
2022-10-20T22:43:30.507Z,19.30
2022-10-20T22:46:34.349Z,19.30
2022-10-20T22:49:39.944Z,19.30
2022-10-20T22:52:43.975Z,19.30
2022-10-20T22:55:46.565Z,19.30
2022-10-20T22:58:48.945Z,19.30
2022-10-20T23:01:51.063Z,19.30
2022-10-20T23:04:53.114Z,19.30
2022-10-20T23:07:55.166Z,19.30
2022-10-20T23:10:58.831Z,19.30
2022-10-20T23:14:00.883Z,19.30
2022-10-20T23:17:02.948Z,19.20
2022-10-20T23:20:06.455Z,19.20
2022-10-20T23:23:09.157Z,19.20
2022-10-20T23:26:11.563Z,19.20
2022-10-20T23:29:13.834Z,19.20
2022-10-20T23:32:16.102Z,19.20
2022-10-20T23:35:18.124Z,19.20
2022-10-20T23:38:20.184Z,19.20
2022-10-20T23:41:22.248Z,19.20
2022-10-20T23:44:24.334Z,19.20
2022-10-20T23:47:26.435Z,19.20
2022-10-20T23:50:28.408Z,19.20
2022-10-20T23:53:30.708Z,19.20
2022-10-20T23:56:32.815Z,19.30
2022-10-20T23:59:34.818Z,19.30
